Note: Certified Weather is only available to Registered Users.
Weather Page Abbreviations
AirportCeilingVisibilityWind SpeedTempMETAR
KBID
RedGreenBlueGreenKBID 200456Z AUTO 03020G26KT 6SM -RA BR OVC006 19/18 RMK AO2 PK WND 03030/0445 RAB29 SLPNO P0000 T01890183 $
METAR Reports
KBID 200456Z AUTO 03020G26KT 6SM -RA BR OVC006 19/18 RMK AO2 PK WND 03030/0445
  RAB29 SLPNO P0000 T01890183 $
KBID 200356Z AUTO 03016G24KT 8SM BKN006 OVC010 19/18 A2983 RMK AO2 PK WND 03031/0324 RAE31 SLP104 P0000 T01890183 402000183
KBID 200256Z AUTO 03019G26KT 5SM -RA BR OVC004 19/18 A2983 RMK AO2 PK WND 03029/0203 CIG 004V007 SLP105 P0001 60003 T01890183 58009
KBID 200238Z AUTO 03017G27KT 3SM -RA BR OVC004 19/18 A2984 RMK AO2 PK WND 03029/0203 P0001

Terminal Forecasts
View Plain Text

Forecast For KBID Not Found

Using Forecast For KPVD
KPVD 192331Z 2000/2024 03015G25KT 6SM -SHRA OVC006
FM200600 02014KT 3SM BR VCSH OVC003
FM200900 02014G25KT 3SM BR VCSH OVC008
FM202300 01017G31KT 3SM BR OVC010


Recent NOTAMs (new or modified) from the last 12 hours
  No NOTAMs were submitted for KBID in the last 12 hours
NOTAMs
TFR Flight RestrictionsCheck Approach/Airway FDC Notams for: KBID  
(International notams may be incomplete)
BID 09/011 BID RWY 10 FICON 5/5/5 100 PRCT WET OBSERVED AT
            1709191121. 1709191121-1709201121
BID 09/008 BID RWY 10/28 WIP MAINT ADJ NO PRACTICE T/O AND LANDINGS.
            NO TOUCH AND GO'S 1709181308-1709222000EST
BID 09/012 BID RWY 28 FICON 5/5/5 100 PCT WET OBS AT
            1709191138. 1709191138-1709201138
BID 02/014 BID RWY 10/28 SAFETY AREA NOT STD SE 1702081504-PERM
BID 09/010 BID TWY ALL WIP MAINT 1709181312-1709222000EST
BID 09/009 BID APRON ALL WIP MAINT 1709181310-1709222000EST
BID 09/013 BID APRON MAIN RAMP FICON WET AND WET OBSERVED AT
            1709191142. 1709191142-1709201142

Nearby Departure Airport METARs
KGON 200523Z AUTO 02016G25KT 7SM -RA SCT015 BKN031 OVC039 20/18 A2983 RMK AO2
  RAB0459 P0001 T02000183
KOQU 200250Z 05022KT 2SM -RA BR SCT005 BKN007 OVC009 19/18 A2989 RMK LAST
KPVD 200451Z 03013KT 8SM -RA OVC009 19/19 A2990 RMK AO2 RAE08B24 SLP123 P0000 T01890189
KEWB 200453Z AUTO 03012G20KT 3SM +RA BR OVC007 19/18 A2986 RMK AO2 CIG 005V011 SLP111 P0015 T01940183
KSFZ 200526Z AUTO 03012G18KT 1 1/4SM BR OVC002 18/17 A2992 RMK AO2 LTG DSNT E
KMVY 200522Z AUTO 05017G27KT 1 1/2SM BR OVC003 21/20 A2982 RMK AO2 PK WND 05027/0514 T02110200

KGON = GROTON-NEW LONDON GROTON CT
KMVY = MARTHAS VINEYARD VINEYARD HAV MA
KEWB = NEW BEDFORD RGNL NEW BEDFORD MA
KOQU = QUONSET STATE N.KINGSTOWN RI
KSFZ = NORTH CENTRAL STATE PAWTUCKET RI
KPVD = THEODORE FRANCIS GREEN STATE PROVIDENCE RI
GPS NOTAMs
GPS 09/116 ZNY (ANAV FSMO GPS 17-02) GPS (INCLUDING WAAS, GBAS, AND
        ADS-B) MAY NOT BE AVBL WI A 272NM RADIUS CENTERED AT
        350432N0755844W (EWN 100052) FL400-UNL,
        225NM RADIUS AT FL250,
        159NM RADIUS AT 10000FT,
        116NM RADIUS AT 4000FT AGL,
        57NM RADIUS AT 50FT AGL.
        DLY 1100-1300
        1709161100-1709231300

GPS 09/115 ZDC (ANAV FSMO GPS 17-02) GPS (INCLUDING WAAS, GBAS, AND
        ADS-B) MAY NOT BE AVBL WI A 272NM RADIUS CENTERED AT
        350432N0755844W (EWN 100052) FL400-UNL,
        225NM RADIUS AT FL250,
        159NM RADIUS AT 10000FT,
        116NM RADIUS AT 4000FT AGL,
        57NM RADIUS AT 50FT AGL.
        DLY 1100-1300
        1709161100-1709231300

GPS 09/117 ZJX (ANAV FSMO GPS 17-02) GPS (INCLUDING WAAS, GBAS, AND
        ADS-B) MAY NOT BE AVBL WI A 272NM RADIUS CENTERED AT
        350432N0755844W (EWN 100052) FL400-UNL,
        225NM RADIUS AT FL250,
        159NM RADIUS AT 10000FT,
        116NM RADIUS AT 4000FT AGL,
        57NM RADIUS AT 50FT AGL.
        DLY 1100-1300
        1709161100-1709231300

GPS 09/114 ZTL (ANAV FSMO GPS 17-02) GPS (INCLUDING WAAS, GBAS, AND
        ADS-B) MAY NOT BE AVBL WI A 272NM RADIUS CENTERED AT
        350432N0755844W (EWN 100052) FL400-UNL,
        225NM RADIUS AT FL250,
        159NM RADIUS AT 10000FT,
        116NM RADIUS AT 4000FT AGL,
        57NM RADIUS AT 50FT AGL.
        DLY 1100-1300
        1709161100-1709231300

GPS 09/142 ZKC NAV (FCAR GPS 17-49) GPS (INCLUDING WAAS, GBAS, AND
        ADS-B) MAY NOT BE AVBL WI A 252NM RADIUS CENTERED AT 383229N1045209W
        (PUB 298025) FL400-UNL
        229NM RADIUS AT FL250,
        147NM RADIUS AT 10000FT,
        133NM RADIUS AT 4000FT AGL,
        94NM RADIUS AT 50FT AGL.
        THIS NOTAM APPLIES TO ALL ACFT RELYING ON GPS. ADDITIONALLY, DUE TO
        GPS INTERFERENCE IMPACTS POTENTIALLY AFFECTING EMBRAER PHENOM 300
        ACFT FLT STABILITY CONTROLS, FAA RECOMMENDS EMB PHENOM PILOTS AVOID
        THE ABOVE TESTING AREA, AND CLOSELY MONITOR FLT CONTROL SYSTEMS DUE
        TO POTENTIAL LOSS OF GPS SIGNAL.
        DLY 0530-1200
        1709220530-1709241200

GPS 09/124 ZAB NAV (NAWDC GPS 17-02) GPS (INCLUDING WAAS, GBAS, AND
        ADS-B) MAY NOT BE AVBL WI A 400NM RADIUS CENTERED AT 393835N1174702W
        (MVA 357066) FL400-UNL
        363NM RADIUS AT FL250,
        275NM RADIUS AT 10000FT,
        290NM RADIUS AT 4000FT AGL,
        222NM RADIUS AT 50FT AGL
        DLY 1900-2030, 2230-2359
        1709191900-1709202359

GPS 09/129 ZSE NAV (NAWDC GPS 17-02) GPS (INCLUDING WAAS, GBAS, AND
        ADS-B) MAY NOT BE AVBL WI A 400NM RADIUS CENTERED AT 393835N1174702W
        (MVA 357066) FL400-UNL
        363NM RADIUS AT FL250,
        275NM RADIUS AT 10000FT,
        290NM RADIUS AT 4000FT AGL,
        222NM RADIUS AT 50FT AGL
        DLY 1900-2030, 2230-2359
        1709191900-1709202359

GPS 09/128 ZOA NAV (NAWDC GPS 17-02) GPS (INCLUDING WAAS, GBAS, AND
        ADS-B) MAY NOT BE AVBL WI A 400NM RADIUS CENTERED AT 393835N1174702W
        (MVA 357066) FL400-UNL
        363NM RADIUS AT FL250,
        275NM RADIUS AT 10000FT,
        290NM RADIUS AT 4000FT AGL,
        222NM RADIUS AT 50FT AGL
        DLY 1900-2030, 2230-2359
        1709191900-1709202359

GPS 09/128 ZOA NAV (NAWDC GPS 17-02) GPS (INCLUDING WAAS, GBAS, AND
        ADS-B) MAY NOT BE AVBL WI A 400NM RADIUS CENTERED AT 393835N1174702W
        (MVA 357066) FL400-UNL
        363NM RADIUS AT FL250,
        275NM RADIUS AT 10000FT,
        290NM RADIUS AT 4000FT AGL,
        222NM RADIUS AT 50FT AGL
        DLY 1900-2030, 2230-2359
        1709191900-1709202359

GPS 09/126 ZLA NAV (NAWDC GPS 17-02) GPS (INCLUDING WAAS, GBAS, AND
        ADS-B) MAY NOT BE AVBL WI A 400NM RADIUS CENTERED AT 393835N1174702W
        (MVA 357066) FL400-UNL
        363NM RADIUS AT FL250,
        275NM RADIUS AT 10000FT,
        290NM RADIUS AT 4000FT AGL,
        222NM RADIUS AT 50FT AGL
        DLY 1900-2030, 2230-2359
        1709191900-1709202359

GPS 09/141 ZDV NAV (FCAR GPS 17-49) GPS (INCLUDING WAAS, GBAS, AND
        ADS-B) MAY NOT BE AVBL WI A 252NM RADIUS CENTERED AT 383229N1045209W
        (PUB 298025) FL400-UNL
        229NM RADIUS AT FL250,
        147NM RADIUS AT 10000FT,
        133NM RADIUS AT 4000FT AGL,
        94NM RADIUS AT 50FT AGL.
        THIS NOTAM APPLIES TO ALL ACFT RELYING ON GPS. ADDITIONALLY, DUE TO
        GPS INTERFERENCE IMPACTS POTENTIALLY AFFECTING EMBRAER PHENOM 300
        ACFT FLT STABILITY CONTROLS, FAA RECOMMENDS EMB PHENOM PILOTS AVOID
        THE ABOVE TESTING AREA, AND CLOSELY MONITOR FLT CONTROL SYSTEMS DUE
        TO POTENTIAL LOSS OF GPS SIGNAL.
        DLY 0530-1200
        1709220530-1709241200

GPS 09/127 ZLC NAV (NAWDC GPS 17-02) GPS (INCLUDING WAAS, GBAS, AND
        ADS-B) MAY NOT BE AVBL WI A 400NM RADIUS CENTERED AT 393835N1174702W
        (MVA 357066) FL400-UNL
        363NM RADIUS AT FL250,
        275NM RADIUS AT 10000FT,
        290NM RADIUS AT 4000FT AGL,
        222NM RADIUS AT 50FT AGL
        DLY 1900-2030, 2230-2359
        1709191900-1709202359

GPS 09/116 ZNY (ANAV FSMO GPS 17-02) GPS (INCLUDING WAAS, GBAS, AND
        ADS-B) MAY NOT BE AVBL WI A 272NM RADIUS CENTERED AT
        350432N0755844W (EWN 100052) FL400-UNL,
        225NM RADIUS AT FL250,
        159NM RADIUS AT 10000FT,
        116NM RADIUS AT 4000FT AGL,
        57NM RADIUS AT 50FT AGL.
        DLY 1100-1300
        1709161100-1709231300